sensor_id;sensor_type;location;lat;lon;timestamp;pressure;altitude;pressure_sealevel;temperature;humidity
20394;BME280;10356;50.544;9.642;2023-01-27T00:02:14;98678.88;;;-0.17;100.00
20394;BME280;10356;50.544;9.642;2023-01-27T00:04:41;98671.22;;;-0.19;100.00
20394;BME280;10356;50.544;9.642;2023-01-27T00:07:07;98671.41;;;-0.25;100.00
20394;BME280;10356;50.544;9.642;2023-01-27T00:09:35;98672.06;;;-0.18;100.00
20394;BME280;10356;50.544;9.642;2023-01-27T00:12:01;98678.75;;;-0.14;100.00
20394;BME280;10356;50.544;9.642;2023-01-27T00:14:45;98678.03;;;-0.18;100.00
20394;BME280;10356;50.544;9.642;2023-01-27T00:17:12;98670.28;;;-0.16;100.00
20394;BME280;10356;50.544;9.642;2023-01-27T00:19:38;98665.28;;;-0.19;100.00
20394;BME280;10356;50.544;9.642;2023-01-27T00:22:09;98677.16;;;-0.18;100.00
20394;BME280;10356;50.544;9.642;2023-01-27T00:24:54;98669.38;;;-0.14;100.00
20394;BME280;10356;50.544;9.642;2023-01-27T00:27:21;98667.72;;;-0.15;100.00
20394;BME280;10356;50.544;9.642;2023-01-27T00:29:48;98667.81;;;-0.19;100.00
20394;BME280;10356;50.544;9.642;2023-01-27T00:32:17;98665.34;;;-0.22;100.00
20394;BME280;10356;50.544;9.642;2023-01-27T00:35:00;98663.75;;;-0.26;100.00
20394;BME280;10356;50.544;9.642;2023-01-27T00:37:27;98677.44;;;-0.27;100.00
20394;BME280;10356;50.544;9.642;2023-01-27T00:39:55;98672.38;;;-0.30;100.00
20394;BME280;10356;50.544;9.642;2023-01-27T00:42:21;98673.13;;;-0.25;100.00
20394;BME280;10356;50.544;9.642;2023-01-27T00:44:47;98665.28;;;-0.19;100.00
20394;BME280;10356;50.544;9.642;2023-01-27T00:47:28;98666.19;;;-0.22;100.00
20394;BME280;10356;50.544;9.642;2023-01-27T00:49:54;98665.34;;;-0.22;100.00
20394;BME280;10356;50.544;9.642;2023-01-27T00:52:21;98674.59;;;-0.17;100.00
20394;BME280;10356;50.544;9.642;2023-01-27T00:54:47;98667.81;;;-0.19;100.00
20394;BME280;10356;50.544;9.642;2023-01-27T00:57:15;98671.25;;;-0.20;100.00
20394;BME280;10356;50.544;9.642;2023-01-27T00:59:41;98662.09;;;-0.27;100.00
20394;BME280;10356;50.544;9.642;2023-01-27T01:02:08;98668.78;;;-0.23;100.00
20394;BME280;10356;50.544;9.642;2023-01-27T01:04:34;98666.31;;;-0.26;100.00
20394;BME280;10356;50.544;9.642;2023-01-27T01:07:01;98666.22;;;-0.23;100.00
20394;BME280;10356;50.544;9.642;2023-01-27T01:09:28;98676.34;;;-0.19;100.00
20394;BME280;10356;50.544;9.642;2023-01-27T01:11:54;98675.63;;;-0.24;100.00
20394;BME280;10356;50.544;9.642;2023-01-27T01:14:22;98677.06;;;-0.14;100.00
20394;BME280;10356;50.544;9.642;2023-01-27T01:16:48;98673.75;;;-0.17;100.00
20394;BME280;10356;50.544;9.642;2023-01-27T01:19:15;98681.31;;;-0.14;100.00
20394;BME280;10356;50.544;9.642;2023-01-27T01:21:41;98683.81;;;-0.11;100.00
20394;BME280;10356;50.544;9.642;2023-01-27T01:24:08;98687.97;;;-0.07;100.00
20394;BME280;10356;50.544;9.642;2023-01-27T01:26:34;98688.22;;;-0.16;100.00
20394;BME280;10356;50.544;9.642;2023-01-27T01:29:01;98688.44;;;-0.24;100.00
20394;BME280;10356;50.544;9.642;2023-01-27T01:31:29;98686.44;;;-0.13;100.00
20394;BME280;10356;50.544;9.642;2023-01-27T01:33:55;98678.75;;;-0.14;100.00
20394;BME280;10356;50.544;9.642;2023-01-27T01:36:21;98687.41;;;-0.18;100.00
20394;BME280;10356;50.544;9.642;2023-01-27T01:38:53;98686.44;;;-0.13;100.00
20394;BME280;10356;50.544;9.642;2023-01-27T01:41:21;98682.13;;;-0.12;100.00
20394;BME280;10356;50.544;9.642;2023-01-27T01:43:48;98681.31;;;-0.13;100.00
20394;BME280;10356;50.544;9.642;2023-01-27T01:46:15;98680.34;;;-0.10;100.00
20394;BME280;10356;50.544;9.642;2023-01-27T01:48:45;98682.91;;;-0.09;100.00
20394;BME280;10356;50.544;9.642;2023-01-27T01:51:16;98686.38;;;-0.11;100.00
20394;BME280;10356;50.544;9.642;2023-01-27T01:53:49;98681.53;;;-0.22;100.00
20394;BME280;10356;50.544;9.642;2023-01-27T01:56:21;98682.34;;;-0.20;100.00
20394;BME280;10356;50.544;9.642;2023-01-27T01:58:48;98685.75;;;-0.19;100.00
20394;BME280;10356;50.544;9.642;2023-01-27T02:01:16;98680.69;;;-0.21;100.00
20394;BME280;10356;50.544;9.642;2023-01-27T02:03:49;98678.25;;;-0.25;100.00
20394;BME280;10356;50.544;9.642;2023-01-27T02:06:19;98672.38;;;-0.30;100.00
20394;BME280;10356;50.544;9.642;2023-01-27T02:08:47;98678.34;;;-0.30;100.00
20394;BME280;10356;50.544;9.642;2023-01-27T02:11:15;98674.84;;;-0.26;100.00
20394;BME280;10356;50.544;9.642;2023-01-27T02:13:42;98677.44;;;-0.27;100.00
20394;BME280;10356;50.544;9.642;2023-01-27T02:16:09;98674.09;;;-0.29;100.00
20394;BME280;10356;50.544;9.642;2023-01-27T02:18:36;98687.69;;;-0.27;100.00
20394;BME280;10356;50.544;9.642;2023-01-27T02:21:05;98676.53;;;-0.26;100.00
20394;BME280;10356;50.544;9.642;2023-01-27T02:23:42;98684.06;;;-0.20;100.00
20394;BME280;10356;50.544;9.642;2023-01-27T02:26:15;98679.03;;;-0.23;100.00
20394;BME280;10356;50.544;9.642;2023-01-27T02:28:43;98683.25;;;-0.22;100.00
20394;BME280;10356;50.544;9.642;2023-01-27T02:31:09;98679.94;;;-0.26;100.00
20394;BME280;10356;50.544;9.642;2023-01-27T02:33:36;98680.69;;;-0.22;100.00
20394;BME280;10356;50.544;9.642;2023-01-27T02:36:07;98682.47;;;-0.24;100.00
20394;BME280;10356;50.544;9.642;2023-01-27T02:38:36;98685.81;;;-0.22;100.00
20394;BME280;10356;50.544;9.642;2023-01-27T02:41:08;98679.09;;;-0.26;100.00
20394;BME280;10356;50.544;9.642;2023-01-27T02:43:38;98683.34;;;-0.25;100.00
20394;BME280;10356;50.544;9.642;2023-01-27T02:46:04;98685.81;;;-0.22;100.00
20394;BME280;10356;50.544;9.642;2023-01-27T02:48:31;98679.63;;;-0.14;100.00
20394;BME280;10356;50.544;9.642;2023-01-27T02:50:57;98684.84;;;-0.17;100.00
20394;BME280;10356;50.544;9.642;2023-01-27T02:53:24;98683.41;;;-0.27;100.00
20394;BME280;10356;50.544;9.642;2023-01-27T02:55:51;98688.31;;;-0.19;100.00
20394;BME280;10356;50.544;9.642;2023-01-27T02:58:17;98693.31;;;-0.15;100.00
20394;BME280;10356;50.544;9.642;2023-01-27T03:00:45;98691.56;;;-0.13;100.00
20394;BME280;10356;50.544;9.642;2023-01-27T03:03:12;98699.34;;;-0.17;100.00
20394;BME280;10356;50.544;9.642;2023-01-27T03:05:38;98695.56;;;-0.04;100.00
20394;BME280;10356;50.544;9.642;2023-01-27T03:08:05;98690.69;;;-0.13;100.00
20394;BME280;10356;50.544;9.642;2023-01-27T03:10:31;98691.50;;;-0.11;100.00
20394;BME280;10356;50.544;9.642;2023-01-27T03:12:58;98693.44;;;-0.19;100.00
20394;BME280;10356;50.544;9.642;2023-01-27T03:15:24;98701.13;;;-0.19;100.00
20394;BME280;10356;50.544;9.642;2023-01-27T03:18:10;98698.56;;;-0.19;100.00
20394;BME280;10356;50.544;9.642;2023-01-27T03:20:43;98697.75;;;-0.21;100.00
20394;BME280;10356;50.544;9.642;2023-01-27T03:23:10;98695.16;;;-0.20;100.00
20394;BME280;10356;50.544;9.642;2023-01-27T03:25:40;98699.50;;;-0.23;100.00
20394;BME280;10356;50.544;9.642;2023-01-27T03:28:07;98701.00;;;-0.16;100.00
20394;BME280;10356;50.544;9.642;2023-01-27T03:30:33;98694.22;;;-0.17;100.00
20394;BME280;10356;50.544;9.642;2023-01-27T03:32:59;98696.84;;;-0.19;100.00
20394;BME280;10356;50.544;9.642;2023-01-27T03:35:29;98698.50;;;-0.18;100.00
20394;BME280;10356;50.544;9.642;2023-01-27T03:38:04;98705.50;;;-0.23;100.00
20394;BME280;10356;50.544;9.642;2023-01-27T03:40:48;98707.09;;;-0.20;100.00
20394;BME280;10356;50.544;9.642;2023-01-27T03:43:33;98712.09;;;-0.16;100.00
20394;BME280;10356;50.544;9.642;2023-01-27T03:46:17;98708.75;;;-0.18;100.00
20394;BME280;10356;50.544;9.642;2023-01-27T03:48:47;98705.66;;;-0.30;100.00
20394;BME280;10356;50.544;9.642;2023-01-27T03:51:16;98706.28;;;-0.21;100.00
20394;BME280;10356;50.544;9.642;2023-01-27T03:53:43;98715.56;;;-0.18;100.00
20394;BME280;10356;50.544;9.642;2023-01-27T03:56:10;98712.03;;;-0.13;100.00
20394;BME280;10356;50.544;9.642;2023-01-27T03:58:37;98707.78;;;-0.14;100.00
20394;BME280;10356;50.544;9.642;2023-01-27T04:01:07;98712.03;;;-0.13;100.00
20394;BME280;10356;50.544;9.642;2023-01-27T04:03:37;98718.88;;;-0.13;100.00
20394;BME280;10356;50.544;9.642;2023-01-27T04:06:25;98708.84;;;-0.21;100.00
20394;BME280;10356;50.544;9.642;2023-01-27T04:09:12;98718.13;;;-0.18;100.00
20394;BME280;10356;50.544;9.642;2023-01-27T04:11:39;98719.78;;;-0.16;100.00
20394;BME280;10356;50.544;9.642;2023-01-27T04:14:23;98716.38;;;-0.16;100.00
20394;BME280;10356;50.544;9.642;2023-01-27T04:16:52;98721.50;;;-0.16;100.00
20394;BME280;10356;50.544;9.642;2023-01-27T04:19:19;98722.34;;;-0.16;100.00
20394;BME280;10356;50.544;9.642;2023-01-27T04:21:47;98726.59;;;-0.15;100.00
20394;BME280;10356;50.544;9.642;2023-01-27T04:24:15;98715.41;;;-0.12;100.00
20394;BME280;10356;50.544;9.642;2023-01-27T04:26:52;98711.09;;;-0.10;100.00
20394;BME280;10356;50.544;9.642;2023-01-27T04:29:20;98722.13;;;-0.08;100.00
20394;BME280;10356;50.544;9.642;2023-01-27T04:31:47;98721.31;;;-0.10;100.00
20394;BME280;10356;50.544;9.642;2023-01-27T04:34:14;98727.22;;;-0.07;100.00
20394;BME280;10356;50.544;9.642;2023-01-27T04:36:41;98718.59;;;-0.04;100.00
20394;BME280;10356;50.544;9.642;2023-01-27T04:39:09;98725.41;;;-0.03;100.00
20394;BME280;10356;50.544;9.642;2023-01-27T04:41:36;98719.41;;;-0.02;100.00
20394;BME280;10356;50.544;9.642;2023-01-27T04:44:03;98721.94;;;-0.01;100.00
20394;BME280;10356;50.544;9.642;2023-01-27T04:46:30;98717.56;;;0.03;100.00
20394;BME280;10356;50.544;9.642;2023-01-27T04:48:57;98725.19;;;0.05;100.00
20394;BME280;10356;50.544;9.642;2023-01-27T04:51:24;98722.63;;;0.05;100.00
20394;BME280;10356;50.544;9.642;2023-01-27T04:53:51;98714.13;;;0.04;100.00
20394;BME280;10356;50.544;9.642;2023-01-27T04:56:24;98720.06;;;0.05;100.00
20394;BME280;10356;50.544;9.642;2023-01-27T04:58:51;98721.72;;;0.07;100.00
20394;BME280;10356;50.544;9.642;2023-01-27T05:01:18;98720.91;;;0.05;100.00
20394;BME280;10356;50.544;9.642;2023-01-27T05:03:45;98719.09;;;0.10;100.00
20394;BME280;10356;50.544;9.642;2023-01-27T05:06:11;98721.59;;;0.12;100.00
20394;BME280;10356;50.544;9.642;2023-01-27T05:08:39;98717.56;;;0.03;100.00
20394;BME280;10356;50.544;9.642;2023-01-27T05:11:06;98726.88;;;0.06;100.00
20394;BME280;10356;50.544;9.642;2023-01-27T05:13:34;98723.47;;;0.05;100.00
20394;BME280;10356;50.544;9.642;2023-01-27T05:16:10;98728.66;;;0.04;100.00
20394;BME280;10356;50.544;9.642;2023-01-27T05:18:37;98731.34;;;-0.01;100.00
20394;BME280;10356;50.544;9.642;2023-01-27T05:21:05;98734.63;;;0.03;100.00
20394;BME280;10356;50.544;9.642;2023-01-27T05:23:32;98732.94;;;0.03;100.00
20394;BME280;10356;50.544;9.642;2023-01-27T05:26:04;98731.16;;;0.05;100.00
20394;BME280;10356;50.544;9.642;2023-01-27T05:28:31;98732.94;;;0.03;100.00
20394;BME280;10356;50.544;9.642;2023-01-27T05:31:04;98732.09;;;0.03;100.00
20394;BME280;10356;50.544;9.642;2023-01-27T05:33:30;98739.66;;;0.07;100.00
20394;BME280;10356;50.544;9.642;2023-01-27T05:35:58;98744.09;;;0.00;100.00
20394;BME280;10356;50.544;9.642;2023-01-27T05:38:26;98737.00;;;0.10;100.00
20394;BME280;10356;50.544;9.642;2023-01-27T05:40:56;98741.34;;;0.08;100.00
20394;BME280;10356;50.544;9.642;2023-01-27T05:43:25;98737.97;;;0.06;100.00
20394;BME280;10356;50.544;9.642;2023-01-27T05:45:52;98733.69;;;0.07;100.00
20394;BME280;10356;50.544;9.642;2023-01-27T05:48:19;98736.97;;;0.12;100.00
20394;BME280;10356;50.544;9.642;2023-01-27T05:50:55;98738.72;;;0.10;100.00
20394;BME280;10356;50.544;9.642;2023-01-27T05:53:23;98740.19;;;0.18;100.00
20394;BME280;10356;50.544;9.642;2023-01-27T05:55:50;98743.50;;;0.22;100.00
20394;BME280;10356;50.544;9.642;2023-01-27T05:58:17;98747.78;;;0.21;100.00
20394;BME280;10356;50.544;9.642;2023-01-27T06:00:43;98744.34;;;0.22;100.00
20394;BME280;10356;50.544;9.642;2023-01-27T06:03:10;98743.59;;;0.19;100.00
20394;BME280;10356;50.544;9.642;2023-01-27T06:05:38;98748.63;;;0.22;100.00
20394;BME280;10356;50.544;9.642;2023-01-27T06:08:04;98748.81;;;0.16;100.00
20394;BME280;10356;50.544;9.642;2023-01-27T06:10:31;98751.16;;;0.23;100.00
20394;BME280;10356;50.544;9.642;2023-01-27T06:13:02;98756.25;;;0.23;100.00
20394;BME280;10356;50.544;9.642;2023-01-27T06:15:28;98759.81;;;0.19;100.00
20394;BME280;10356;50.544;9.642;2023-01-27T06:17:55;98757.28;;;0.18;100.00
20394;BME280;10356;50.544;9.642;2023-01-27T06:20:21;98754.56;;;0.24;100.00
20394;BME280;10356;50.544;9.642;2023-01-27T06:22:49;98758.03;;;0.21;100.00
20394;BME280;10356;50.544;9.642;2023-01-27T06:25:16;98766.50;;;0.23;100.00
20394;BME280;10356;50.544;9.642;2023-01-27T06:27:42;98764.00;;;0.22;100.00
20394;BME280;10356;50.544;9.642;2023-01-27T06:30:10;98762.34;;;0.19;100.00
20394;BME280;10356;50.544;9.642;2023-01-27T06:32:36;98769.69;;;0.31;100.00
20394;BME280;10356;50.544;9.642;2023-01-27T06:35:03;98766.50;;;0.23;100.00
20394;BME280;10356;50.544;9.642;2023-01-27T06:37:30;98763.16;;;0.21;100.00
20394;BME280;10356;50.544;9.642;2023-01-27T06:39:58;98774.25;;;0.22;100.00
20394;BME280;10356;50.544;9.642;2023-01-27T06:42:24;98766.44;;;0.26;100.00
20394;BME280;10356;50.544;9.642;2023-01-27T06:44:51;98765.44;;;0.32;100.00
20394;BME280;10356;50.544;9.642;2023-01-27T06:47:17;98764.53;;;0.33;100.00
20394;BME280;10356;50.544;9.642;2023-01-27T06:49:44;98768.03;;;0.30;100.00
20394;BME280;10356;50.544;9.642;2023-01-27T06:52:10;98772.25;;;0.31;100.00
20394;BME280;10356;50.544;9.642;2023-01-27T06:54:37;98778.84;;;0.40;100.00
20394;BME280;10356;50.544;9.642;2023-01-27T06:57:04;98779.78;;;0.37;100.00
20394;BME280;10356;50.544;9.642;2023-01-27T06:59:34;98775.56;;;0.35;100.00
20394;BME280;10356;50.544;9.642;2023-01-27T07:02:00;98783.31;;;0.33;100.00
20394;BME280;10356;50.544;9.642;2023-01-27T07:04:27;98788.53;;;0.30;100.00
20394;BME280;10356;50.544;9.642;2023-01-27T07:06:54;98787.53;;;0.36;100.00
20394;BME280;10356;50.544;9.642;2023-01-27T07:09:20;98796.84;;;0.38;100.00
20394;BME280;10356;50.544;9.642;2023-01-27T07:11:47;98795.91;;;0.41;100.00
20394;BME280;10356;50.544;9.642;2023-01-27T07:14:14;98784.00;;;0.40;100.00
20394;BME280;10356;50.544;9.642;2023-01-27T07:16:41;98794.97;;;0.43;100.00
20394;BME280;10356;50.544;9.642;2023-01-27T07:19:07;98797.66;;;0.40;100.00
20394;BME280;10356;50.544;9.642;2023-01-27T07:21:34;98797.50;;;0.45;100.00
20394;BME280;10356;50.544;9.642;2023-01-27T07:24:00;98803.59;;;0.41;100.00
20394;BME280;10356;50.544;9.642;2023-01-27T07:26:27;98806.94;;;0.44;100.00
20394;BME280;10356;50.544;9.642;2023-01-27T07:28:54;98807.63;;;0.49;100.00
20394;BME280;10356;50.544;9.642;2023-01-27T07:31:22;98807.69;;;0.48;100.00
20394;BME280;10356;50.544;9.642;2023-01-27T07:33:48;98810.88;;;0.56;100.00
20394;BME280;10356;50.544;9.642;2023-01-27T07:36:15;98806.59;;;0.56;100.00
20394;BME280;10356;50.544;9.642;2023-01-27T07:38:41;98816.06;;;0.53;100.00
20394;BME280;10356;50.544;9.642;2023-01-27T07:41:08;98809.94;;;0.58;100.00
20394;BME280;10356;50.544;9.642;2023-01-27T07:43:35;98814.34;;;0.53;100.00
20394;BME280;10356;50.544;9.642;2023-01-27T07:46:02;98813.47;;;0.54;100.00
20394;BME280;10356;50.544;9.642;2023-01-27T07:48:30;98813.38;;;0.57;100.00
20394;BME280;10356;50.544;9.642;2023-01-27T07:50:56;98816.91;;;0.53;100.00
20394;BME280;10356;50.544;9.642;2023-01-27T07:53:23;98820.19;;;0.58;100.00
20394;BME280;10356;50.544;9.642;2023-01-27T07:55:49;98826.25;;;0.56;100.00
20394;BME280;10356;50.544;9.642;2023-01-27T07:58:16;98825.22;;;0.61;100.00
20394;BME280;10356;50.544;9.642;2023-01-27T08:00:43;98837.97;;;0.64;100.00
20394;BME280;10356;50.544;9.642;2023-01-27T08:03:20;98830.41;;;0.60;100.00
20394;BME280;10356;50.544;9.642;2023-01-27T08:05:48;98837.16;;;0.62;100.00
20394;BME280;10356;50.544;9.642;2023-01-27T08:08:15;98836.16;;;0.68;100.00
20394;BME280;10356;50.544;9.642;2023-01-27T08:10:41;98841.28;;;0.68;100.00
20394;BME280;10356;50.544;9.642;2023-01-27T08:13:11;98835.13;;;0.73;100.00
20394;BME280;10356;50.544;9.642;2023-01-27T08:15:38;98841.09;;;0.74;100.00
20394;BME280;10356;50.544;9.642;2023-01-27T08:18:04;98836.66;;;0.80;100.00
20394;BME280;10356;50.544;9.642;2023-01-27T08:20:30;98840.25;;;0.73;100.00
20394;BME280;10356;50.544;9.642;2023-01-27T08:22:58;98833.28;;;0.78;100.00
20394;BME280;10356;50.544;9.642;2023-01-27T08:25:25;98841.78;;;0.79;100.00
20394;BME280;10356;50.544;9.642;2023-01-27T08:27:52;98839.16;;;0.82;100.00
20394;BME280;10356;50.544;9.642;2023-01-27T08:30:19;98838.22;;;0.84;100.00
20394;BME280;10356;50.544;9.642;2023-01-27T08:32:46;98848.56;;;0.81;100.00
20394;BME280;10356;50.544;9.642;2023-01-27T08:35:13;98852.59;;;0.90;100.00
20394;BME280;10356;50.544;9.642;2023-01-27T08:37:39;98870.31;;;0.98;100.00
20394;BME280;10356;50.544;9.642;2023-01-27T08:40:08;98864.34;;;0.97;100.00
20394;BME280;10356;50.544;9.642;2023-01-27T08:42:35;98863.34;;;1.03;100.00
20394;BME280;10356;50.544;9.642;2023-01-27T08:45:02;98870.94;;;1.06;100.00
20394;BME280;10356;50.544;9.642;2023-01-27T08:47:29;98858.78;;;1.12;100.00
20394;BME280;10356;50.544;9.642;2023-01-27T08:49:55;98873.44;;;1.09;100.00
20394;BME280;10356;50.544;9.642;2023-01-27T08:52:21;98888.09;;;1.04;100.00
20394;BME280;10356;50.544;9.642;2023-01-27T08:54:48;98888.91;;;1.06;100.00
20394;BME280;10356;50.544;9.642;2023-01-27T08:57:16;98902.69;;;1.02;100.00
20394;BME280;10356;50.544;9.642;2023-01-27T08:59:42;98901.50;;;1.13;100.00
20394;BME280;10356;50.544;9.642;2023-01-27T09:02:12;98899.44;;;0.97;100.00
20394;BME280;10356;50.544;9.642;2023-01-27T09:04:38;98895.75;;;1.05;100.00
20394;BME280;10356;50.544;9.642;2023-01-27T09:07:08;98904.97;;;1.12;100.00
20394;BME280;10356;50.544;9.642;2023-01-27T09:09:34;98902.81;;;0.99;100.00
20394;BME280;10356;50.544;9.642;2023-01-27T09:12:01;98906.16;;;1.01;100.00
20394;BME280;10356;50.544;9.642;2023-01-27T09:14:29;98911.38;;;0.98;100.00
20394;BME280;10356;50.544;9.642;2023-01-27T09:16:55;98900.19;;;1.00;100.00
20394;BME280;10356;50.544;9.642;2023-01-27T09:19:22;98905.94;;;1.08;100.00
20394;BME280;10356;50.544;9.642;2023-01-27T09:21:48;98909.25;;;1.12;100.00
20394;BME280;10356;50.544;9.642;2023-01-27T09:24:15;98916.06;;;1.13;100.00
20394;BME280;10356;50.544;9.642;2023-01-27T09:26:42;98907.56;;;1.11;100.00
20394;BME280;10356;50.544;9.642;2023-01-27T09:29:08;98904.84;;;1.17;100.00
20394;BME280;10356;50.544;9.642;2023-01-27T09:31:36;98907.28;;;1.20;100.00
20394;BME280;10356;50.544;9.642;2023-01-27T09:34:03;98909.06;;;1.18;100.00
20394;BME280;10356;50.544;9.642;2023-01-27T09:36:31;98916.16;;;1.10;100.00
20394;BME280;10356;50.544;9.642;2023-01-27T09:39:01;98907.47;;;1.14;100.00
20394;BME280;10356;50.544;9.642;2023-01-27T09:41:48;98898.97;;;1.12;100.00
20394;BME280;10356;50.544;9.642;2023-01-27T09:47:49;98898.00;;;1.16;100.00
20394;BME280;10356;50.544;9.642;2023-01-27T09:50:30;98898.63;;;1.24;100.00
20394;BME280;10356;50.544;9.642;2023-01-27T09:53:13;98899.41;;;1.26;100.00
20394;BME280;10356;50.544;9.642;2023-01-27T09:55:45;98894.22;;;1.27;100.00
20394;BME280;10356;50.544;9.642;2023-01-27T09:58:24;98904.34;;;1.32;100.00
20394;BME280;10356;50.544;9.642;2023-01-27T10:01:01;98896.06;;;1.24;100.00
20394;BME280;10356;50.544;9.642;2023-01-27T10:03:45;98900.19;;;1.28;100.00
20394;BME280;10356;50.544;9.642;2023-01-27T10:06:41;98894.09;;;1.32;100.00
20394;BME280;10356;50.544;9.642;2023-01-27T10:09:27;98895.53;;;1.40;100.00
20394;BME280;10356;50.544;9.642;2023-01-27T10:12:09;98896.84;;;1.26;100.00
20394;BME280;10356;50.544;9.642;2023-01-27T10:14:46;98901.72;;;1.35;100.00
20394;BME280;10356;50.544;9.642;2023-01-27T10:17:29;98906.44;;;1.21;100.00
20394;BME280;10356;50.544;9.642;2023-01-27T10:20:09;98912.16;;;1.29;100.00
20394;BME280;10356;50.544;9.642;2023-01-27T10:22:48;98907.03;;;1.29;100.00
20394;BME280;10356;50.544;9.642;2023-01-27T10:25:24;98916.50;;;1.27;100.00
20394;BME280;10356;50.544;9.642;2023-01-27T10:27:55;98906.94;;;1.32;100.00
20394;BME280;10356;50.544;9.642;2023-01-27T10:30:27;98906.66;;;1.41;100.00
20394;BME280;10356;50.544;9.642;2023-01-27T10:33:04;98899.56;;;1.49;100.00
20394;BME280;10356;50.544;9.642;2023-01-27T10:35:43;98916.09;;;1.40;100.00
20394;BME280;10356;50.544;9.642;2023-01-27T10:38:19;98915.41;;;1.34;100.00
20394;BME280;10356;50.544;9.642;2023-01-27T10:40:51;98905.81;;;1.40;100.00
20394;BME280;10356;50.544;9.642;2023-01-27T10:43:26;98907.16;;;1.52;100.00
20394;BME280;10356;50.544;9.642;2023-01-27T10:46:00;98905.63;;;1.46;100.00
20394;BME280;10356;50.544;9.642;2023-01-27T10:48:36;98914.00;;;1.53;100.00
20394;BME280;10356;50.544;9.642;2023-01-27T10:51:12;98914.66;;;1.59;100.00
20394;BME280;10356;50.544;9.642;2023-01-27T10:53:48;98914.91;;;1.50;100.00
20394;BME280;10356;50.544;9.642;2023-01-27T10:56:19;98922.44;;;1.56;100.00
20394;BME280;10356;50.544;9.642;2023-01-27T10:58:56;98912.09;;;1.59;100.00
20394;BME280;10356;50.544;9.642;2023-01-27T11:01:30;98909.22;;;1.68;99.23
20394;BME280;10356;50.544;9.642;2023-01-27T11:04:00;98914.59;;;1.61;99.33
20394;BME280;10356;50.544;9.642;2023-01-27T11:06:32;98911.69;;;1.72;99.39
20394;BME280;10356;50.544;9.642;2023-01-27T11:09:06;98909.31;;;1.65;99.32
20394;BME280;10356;50.544;9.642;2023-01-27T11:11:34;98912.53;;;1.72;98.87
20394;BME280;10356;50.544;9.642;2023-01-27T11:14:15;98906.13;;;1.85;98.46
20394;BME280;10356;50.544;9.642;2023-01-27T11:16:45;98902.44;;;1.92;98.77
20394;BME280;10356;50.544;9.642;2023-01-27T11:19:21;98913.44;;;1.97;98.40
20394;BME280;10356;50.544;9.642;2023-01-27T11:21:50;98909.97;;;1.98;99.01
20394;BME280;10356;50.544;9.642;2023-01-27T11:24:23;98906.25;;;2.07;98.07
20394;BME280;10356;50.544;9.642;2023-01-27T11:26:57;98913.22;;;2.03;97.19
20394;BME280;10356;50.544;9.642;2023-01-27T11:29:32;98913.22;;;2.03;97.91
20394;BME280;10356;50.544;9.642;2023-01-27T11:32:04;98911.06;;;1.91;97.82
20394;BME280;10356;50.544;9.642;2023-01-27T11:34:40;98919.75;;;1.87;98.94
20394;BME280;10356;50.544;9.642;2023-01-27T11:37:16;98916.00;;;1.97;98.24
20394;BME280;10356;50.544;9.642;2023-01-27T11:39:45;98909.75;;;2.04;98.23
20394;BME280;10356;50.544;9.642;2023-01-27T11:42:11;98922.31;;;2.13;97.47
20394;BME280;10356;50.544;9.642;2023-01-27T11:44:38;98906.75;;;1.92;97.38
20394;BME280;10356;50.544;9.642;2023-01-27T11:47:06;98896.13;;;2.02;98.76
20394;BME280;10356;50.544;9.642;2023-01-27T11:49:36;98899.59;;;2.01;98.55
20394;BME280;10356;50.544;9.642;2023-01-27T11:52:09;98903.88;;;2.01;99.20
20394;BME280;10356;50.544;9.642;2023-01-27T11:54:42;98898.75;;;2.01;98.95
20394;BME280;10356;50.544;9.642;2023-01-27T11:57:16;98899.69;;;1.98;99.32
20394;BME280;10356;50.544;9.642;2023-01-27T11:59:44;98894.66;;;1.95;99.48
20394;BME280;10356;50.544;9.642;2023-01-27T12:02:20;98902.41;;;1.94;99.23
20394;BME280;10356;50.544;9.642;2023-01-27T12:04:51;98898.66;;;2.04;99.28
20394;BME280;10356;50.544;9.642;2023-01-27T12:07:24;98899.84;;;1.94;100.00
20394;BME280;10356;50.544;9.642;2023-01-27T12:09:54;98906.91;;;1.87;99.72
20394;BME280;10356;50.544;9.642;2023-01-27T12:12:23;98900.38;;;1.77;100.00
20394;BME280;10356;50.544;9.642;2023-01-27T12:14:51;98894.25;;;1.81;100.00
20394;BME280;10356;50.544;9.642;2023-01-27T12:17:23;98900.91;;;1.87;100.00
20394;BME280;10356;50.544;9.642;2023-01-27T12:19:53;98896.44;;;1.93;100.00
20394;BME280;10356;50.544;9.642;2023-01-27T12:22:23;98896.72;;;1.84;100.00
20394;BME280;10356;50.544;9.642;2023-01-27T12:24:56;98887.16;;;1.89;100.00
20394;BME280;10356;50.544;9.642;2023-01-27T12:27:26;98883.19;;;1.79;100.00
20394;BME280;10356;50.544;9.642;2023-01-27T12:29:55;98885.66;;;1.82;100.00
20394;BME280;10356;50.544;9.642;2023-01-27T12:32:33;98880.09;;;1.94;100.00
20394;BME280;10356;50.544;9.642;2023-01-27T12:35:01;98882.69;;;1.94;100.00
20394;BME280;10356;50.544;9.642;2023-01-27T12:37:30;98871.47;;;1.97;100.00
20394;BME280;10356;50.544;9.642;2023-01-27T12:40:02;98872.13;;;2.03;100.00
20394;BME280;10356;50.544;9.642;2023-01-27T12:42:36;98861.03;;;2.01;100.00
20394;BME280;10356;50.544;9.642;2023-01-27T12:45:30;98859.00;;;2.11;100.00
20394;BME280;10356;50.544;9.642;2023-01-27T12:48:04;98865.19;;;2.05;100.00
20394;BME280;10356;50.544;9.642;2023-01-27T12:50:41;98860.44;;;2.19;99.93
20394;BME280;10356;50.544;9.642;2023-01-27T12:53:11;98858.63;;;2.21;99.50
20394;BME280;10356;50.544;9.642;2023-01-27T12:55:41;98853.78;;;2.14;99.08
20394;BME280;10356;50.544;9.642;2023-01-27T12:58:28;98854.56;;;2.16;99.74
20394;BME280;10356;50.544;9.642;2023-01-27T13:00:55;98860.47;;;2.18;99.21
20394;BME280;10356;50.544;9.642;2023-01-27T13:03:23;98861.09;;;2.24;98.94
20394;BME280;10356;50.544;9.642;2023-01-27T13:05:52;98860.63;;;2.38;98.03
20394;BME280;10356;50.544;9.642;2023-01-27T13:08:20;98862.22;;;2.40;97.50
20394;BME280;10356;50.544;9.642;2023-01-27T13:10:50;98859.44;;;2.23;97.13
20394;BME280;10356;50.544;9.642;2023-01-27T13:13:20;98865.94;;;2.33;97.06
20394;BME280;10356;50.544;9.642;2023-01-27T13:15:54;98865.72;;;2.39;97.33